sensor_id;sensor_type;location;lat;lon;timestamp;temperature;humidity
15127;DHT22;7664;52.008;4.748;2023-08-31T00:00:00;13.90;99.90
15127;DHT22;7664;52.008;4.748;2023-08-31T00:02:32;14.00;99.90
15127;DHT22;7664;52.008;4.748;2023-08-31T00:05:00;14.00;99.90
15127;DHT22;7664;52.008;4.748;2023-08-31T00:07:30;14.00;99.90
15127;DHT22;7664;52.008;4.748;2023-08-31T00:09:58;14.00;99.90
15127;DHT22;7664;52.008;4.748;2023-08-31T00:12:26;14.10;99.90
15127;DHT22;7664;52.008;4.748;2023-08-31T00:14:55;14.10;99.90
15127;DHT22;7664;52.008;4.748;2023-08-31T00:17:23;14.20;99.90
15127;DHT22;7664;52.008;4.748;2023-08-31T00:19:51;14.20;99.90
15127;DHT22;7664;52.008;4.748;2023-08-31T00:22:19;14.20;99.90
15127;DHT22;7664;52.008;4.748;2023-08-31T00:24:49;14.20;99.90
15127;DHT22;7664;52.008;4.748;2023-08-31T00:27:17;14.30;99.90
15127;DHT22;7664;52.008;4.748;2023-08-31T00:29:47;14.30;99.90
15127;DHT22;7664;52.008;4.748;2023-08-31T00:32:17;14.40;99.90
15127;DHT22;7664;52.008;4.748;2023-08-31T00:34:46;14.30;99.90
15127;DHT22;7664;52.008;4.748;2023-08-31T00:37:13;14.40;99.90
15127;DHT22;7664;52.008;4.748;2023-08-31T00:39:41;14.40;99.90
15127;DHT22;7664;52.008;4.748;2023-08-31T00:42:13;14.50;99.90
15127;DHT22;7664;52.008;4.748;2023-08-31T00:44:41;14.50;99.90
15127;DHT22;7664;52.008;4.748;2023-08-31T00:47:09;14.50;99.90
15127;DHT22;7664;52.008;4.748;2023-08-31T00:49:37;14.50;99.90
15127;DHT22;7664;52.008;4.748;2023-08-31T00:52:07;14.50;99.90
15127;DHT22;7664;52.008;4.748;2023-08-31T00:54:35;14.50;99.90
15127;DHT22;7664;52.008;4.748;2023-08-31T00:57:04;14.50;99.90
15127;DHT22;7664;52.008;4.748;2023-08-31T00:59:35;14.50;99.90
15127;DHT22;7664;52.008;4.748;2023-08-31T01:02:07;14.50;99.90
15127;DHT22;7664;52.008;4.748;2023-08-31T01:04:41;14.50;99.90
15127;DHT22;7664;52.008;4.748;2023-08-31T01:07:19;14.50;99.90
15127;DHT22;7664;52.008;4.748;2023-08-31T01:09:55;14.50;99.90
15127;DHT22;7664;52.008;4.748;2023-08-31T01:12:32;14.50;99.90
15127;DHT22;7664;52.008;4.748;2023-08-31T01:15:05;14.40;99.90
15127;DHT22;7664;52.008;4.748;2023-08-31T01:17:43;14.40;99.90
15127;DHT22;7664;52.008;4.748;2023-08-31T01:20:15;14.40;99.90
15127;DHT22;7664;52.008;4.748;2023-08-31T01:22:51;14.40;99.90
15127;DHT22;7664;52.008;4.748;2023-08-31T01:25:21;14.30;99.90
15127;DHT22;7664;52.008;4.748;2023-08-31T01:27:49;14.30;99.90
15127;DHT22;7664;52.008;4.748;2023-08-31T01:30:17;14.30;99.90
15127;DHT22;7664;52.008;4.748;2023-08-31T01:32:45;14.30;99.90
15127;DHT22;7664;52.008;4.748;2023-08-31T01:35:16;14.30;99.90
15127;DHT22;7664;52.008;4.748;2023-08-31T01:37:51;14.30;99.90
15127;DHT22;7664;52.008;4.748;2023-08-31T01:40:25;14.30;99.90
15127;DHT22;7664;52.008;4.748;2023-08-31T01:42:55;14.30;99.90
15127;DHT22;7664;52.008;4.748;2023-08-31T01:45:24;14.30;99.90
15127;DHT22;7664;52.008;4.748;2023-08-31T01:47:52;14.30;99.90
15127;DHT22;7664;52.008;4.748;2023-08-31T01:50:21;14.30;99.90
15127;DHT22;7664;52.008;4.748;2023-08-31T01:52:49;14.30;99.90
15127;DHT22;7664;52.008;4.748;2023-08-31T01:55:17;14.30;99.90
15127;DHT22;7664;52.008;4.748;2023-08-31T01:57:47;14.30;99.90
15127;DHT22;7664;52.008;4.748;2023-08-31T02:00:22;14.30;99.90
15127;DHT22;7664;52.008;4.748;2023-08-31T02:02:50;14.30;99.90
15127;DHT22;7664;52.008;4.748;2023-08-31T02:05:18;14.30;99.90
15127;DHT22;7664;52.008;4.748;2023-08-31T02:07:46;14.30;99.90
15127;DHT22;7664;52.008;4.748;2023-08-31T02:10:15;14.30;99.90
15127;DHT22;7664;52.008;4.748;2023-08-31T02:12:44;14.30;99.90
15127;DHT22;7664;52.008;4.748;2023-08-31T02:15:13;14.30;99.90
15127;DHT22;7664;52.008;4.748;2023-08-31T02:17:41;14.30;99.90
15127;DHT22;7664;52.008;4.748;2023-08-31T02:20:11;14.30;99.90
15127;DHT22;7664;52.008;4.748;2023-08-31T02:22:41;14.30;99.90
15127;DHT22;7664;52.008;4.748;2023-08-31T02:25:09;14.30;99.90
15127;DHT22;7664;52.008;4.748;2023-08-31T02:27:38;14.20;99.90
15127;DHT22;7664;52.008;4.748;2023-08-31T02:30:08;14.20;99.90
15127;DHT22;7664;52.008;4.748;2023-08-31T02:32:38;14.20;99.90
15127;DHT22;7664;52.008;4.748;2023-08-31T02:35:06;14.20;99.90
15127;DHT22;7664;52.008;4.748;2023-08-31T02:37:35;14.20;99.90
15127;DHT22;7664;52.008;4.748;2023-08-31T02:40:04;14.20;99.90
15127;DHT22;7664;52.008;4.748;2023-08-31T02:42:35;14.00;99.90
15127;DHT22;7664;52.008;4.748;2023-08-31T02:45:03;14.20;99.90
15127;DHT22;7664;52.008;4.748;2023-08-31T02:47:32;14.20;99.90
15127;DHT22;7664;52.008;4.748;2023-08-31T02:50:01;14.20;99.90
15127;DHT22;7664;52.008;4.748;2023-08-31T02:52:29;14.20;99.90
15127;DHT22;7664;52.008;4.748;2023-08-31T02:54:57;14.20;99.90
15127;DHT22;7664;52.008;4.748;2023-08-31T02:57:25;14.20;99.90
15127;DHT22;7664;52.008;4.748;2023-08-31T02:59:53;14.20;99.90
15127;DHT22;7664;52.008;4.748;2023-08-31T03:02:21;14.20;99.90
15127;DHT22;7664;52.008;4.748;2023-08-31T03:04:50;14.10;99.90
15127;DHT22;7664;52.008;4.748;2023-08-31T03:07:19;14.10;99.90
15127;DHT22;7664;52.008;4.748;2023-08-31T03:09:48;14.10;99.90
15127;DHT22;7664;52.008;4.748;2023-08-31T03:12:17;14.10;99.90
15127;DHT22;7664;52.008;4.748;2023-08-31T03:14:45;14.10;99.90
15127;DHT22;7664;52.008;4.748;2023-08-31T03:17:13;14.10;99.90
15127;DHT22;7664;52.008;4.748;2023-08-31T03:19:41;14.10;99.90
15127;DHT22;7664;52.008;4.748;2023-08-31T03:22:11;14.00;99.90
15127;DHT22;7664;52.008;4.748;2023-08-31T03:24:40;14.00;99.90
15127;DHT22;7664;52.008;4.748;2023-08-31T03:27:08;14.00;99.90
15127;DHT22;7664;52.008;4.748;2023-08-31T03:29:36;14.00;99.90
15127;DHT22;7664;52.008;4.748;2023-08-31T03:32:05;14.00;99.90
15127;DHT22;7664;52.008;4.748;2023-08-31T03:34:33;14.00;99.90
15127;DHT22;7664;52.008;4.748;2023-08-31T03:37:01;14.00;99.90
15127;DHT22;7664;52.008;4.748;2023-08-31T03:39:29;13.90;99.90
15127;DHT22;7664;52.008;4.748;2023-08-31T03:41:59;13.90;99.90
15127;DHT22;7664;52.008;4.748;2023-08-31T03:44:27;13.90;99.90
15127;DHT22;7664;52.008;4.748;2023-08-31T03:46:55;13.80;99.90
15127;DHT22;7664;52.008;4.748;2023-08-31T03:49:22;13.80;99.90
15127;DHT22;7664;52.008;4.748;2023-08-31T03:51:50;13.80;99.90
15127;DHT22;7664;52.008;4.748;2023-08-31T03:54:20;13.70;99.90
15127;DHT22;7664;52.008;4.748;2023-08-31T03:56:48;13.70;99.90
15127;DHT22;7664;52.008;4.748;2023-08-31T03:59:18;13.70;99.90
15127;DHT22;7664;52.008;4.748;2023-08-31T04:01:46;13.70;99.90
15127;DHT22;7664;52.008;4.748;2023-08-31T04:04:15;13.70;99.90
15127;DHT22;7664;52.008;4.748;2023-08-31T04:06:43;13.70;99.90
15127;DHT22;7664;52.008;4.748;2023-08-31T04:09:11;13.70;99.90
15127;DHT22;7664;52.008;4.748;2023-08-31T04:11:40;13.60;99.90
15127;DHT22;7664;52.008;4.748;2023-08-31T04:14:08;13.60;99.90
15127;DHT22;7664;52.008;4.748;2023-08-31T04:16:37;13.60;99.90
15127;DHT22;7664;52.008;4.748;2023-08-31T04:19:05;13.60;99.90
15127;DHT22;7664;52.008;4.748;2023-08-31T04:21:33;13.50;99.90
15127;DHT22;7664;52.008;4.748;2023-08-31T04:24:03;13.50;99.90
15127;DHT22;7664;52.008;4.748;2023-08-31T04:26:31;13.50;99.90
15127;DHT22;7664;52.008;4.748;2023-08-31T04:28:59;13.50;99.90
15127;DHT22;7664;52.008;4.748;2023-08-31T04:31:27;13.50;99.90
15127;DHT22;7664;52.008;4.748;2023-08-31T04:33:56;13.50;99.90
15127;DHT22;7664;52.008;4.748;2023-08-31T04:36:25;13.50;99.90
15127;DHT22;7664;52.008;4.748;2023-08-31T04:38:53;13.50;99.90
15127;DHT22;7664;52.008;4.748;2023-08-31T04:41:21;13.50;99.90
15127;DHT22;7664;52.008;4.748;2023-08-31T04:43:49;13.50;99.90
15127;DHT22;7664;52.008;4.748;2023-08-31T04:46:18;13.50;99.90
15127;DHT22;7664;52.008;4.748;2023-08-31T04:48:46;13.60;99.90
15127;DHT22;7664;52.008;4.748;2023-08-31T04:51:49;13.60;99.90
15127;DHT22;7664;52.008;4.748;2023-08-31T04:55:12;13.60;99.90
15127;DHT22;7664;52.008;4.748;2023-08-31T04:57:41;13.60;99.90
15127;DHT22;7664;52.008;4.748;2023-08-31T05:00:09;13.60;99.90
15127;DHT22;7664;52.008;4.748;2023-08-31T05:02:38;13.60;99.90
15127;DHT22;7664;52.008;4.748;2023-08-31T05:05:08;13.60;99.90
15127;DHT22;7664;52.008;4.748;2023-08-31T05:07:37;13.60;99.90
15127;DHT22;7664;52.008;4.748;2023-08-31T05:10:07;13.60;99.90
15127;DHT22;7664;52.008;4.748;2023-08-31T05:12:35;13.60;99.90
15127;DHT22;7664;52.008;4.748;2023-08-31T05:15:04;13.70;99.90
15127;DHT22;7664;52.008;4.748;2023-08-31T05:17:32;13.70;99.90
15127;DHT22;7664;52.008;4.748;2023-08-31T05:20:01;13.70;99.90
15127;DHT22;7664;52.008;4.748;2023-08-31T05:22:30;13.70;99.90
15127;DHT22;7664;52.008;4.748;2023-08-31T05:25:00;13.80;99.90
15127;DHT22;7664;52.008;4.748;2023-08-31T05:27:28;13.90;99.90
15127;DHT22;7664;52.008;4.748;2023-08-31T05:29:56;13.90;99.90
15127;DHT22;7664;52.008;4.748;2023-08-31T05:32:27;13.90;99.90
15127;DHT22;7664;52.008;4.748;2023-08-31T05:34:55;14.00;99.90
15127;DHT22;7664;52.008;4.748;2023-08-31T05:37:25;14.00;99.90
15127;DHT22;7664;52.008;4.748;2023-08-31T05:39:53;14.00;99.90
15127;DHT22;7664;52.008;4.748;2023-08-31T05:42:22;14.10;99.90
15127;DHT22;7664;52.008;4.748;2023-08-31T05:44:50;14.00;99.90
15127;DHT22;7664;52.008;4.748;2023-08-31T05:47:18;14.10;99.90
15127;DHT22;7664;52.008;4.748;2023-08-31T05:49:46;14.10;99.90
15127;DHT22;7664;52.008;4.748;2023-08-31T05:52:15;14.10;99.90
15127;DHT22;7664;52.008;4.748;2023-08-31T05:54:43;14.10;99.90
15127;DHT22;7664;52.008;4.748;2023-08-31T05:57:11;14.20;99.90
15127;DHT22;7664;52.008;4.748;2023-08-31T05:59:41;14.20;99.90
15127;DHT22;7664;52.008;4.748;2023-08-31T06:02:09;14.30;99.90
15127;DHT22;7664;52.008;4.748;2023-08-31T06:04:37;14.30;99.90
15127;DHT22;7664;52.008;4.748;2023-08-31T06:07:05;14.30;99.90
15127;DHT22;7664;52.008;4.748;2023-08-31T06:09:33;14.30;99.90
15127;DHT22;7664;52.008;4.748;2023-08-31T06:12:01;14.40;99.90
15127;DHT22;7664;52.008;4.748;2023-08-31T06:14:29;14.40;99.90
15127;DHT22;7664;52.008;4.748;2023-08-31T06:16:59;14.40;99.90
15127;DHT22;7664;52.008;4.748;2023-08-31T06:19:27;14.50;99.90
15127;DHT22;7664;52.008;4.748;2023-08-31T06:21:55;14.50;99.90
15127;DHT22;7664;52.008;4.748;2023-08-31T06:24:23;14.50;99.90
15127;DHT22;7664;52.008;4.748;2023-08-31T06:26:51;14.50;99.90
15127;DHT22;7664;52.008;4.748;2023-08-31T06:29:21;14.50;99.90
15127;DHT22;7664;52.008;4.748;2023-08-31T06:31:49;14.60;99.90
15127;DHT22;7664;52.008;4.748;2023-08-31T06:34:19;14.90;99.90
15127;DHT22;7664;52.008;4.748;2023-08-31T06:36:47;15.40;99.90
15127;DHT22;7664;52.008;4.748;2023-08-31T06:39:15;15.90;99.90
15127;DHT22;7664;52.008;4.748;2023-08-31T06:41:43;16.10;99.90
15127;DHT22;7664;52.008;4.748;2023-08-31T06:44:11;16.00;99.90
15127;DHT22;7664;52.008;4.748;2023-08-31T06:46:39;16.10;99.90
15127;DHT22;7664;52.008;4.748;2023-08-31T06:49:07;16.00;99.90
15127;DHT22;7664;52.008;4.748;2023-08-31T06:51:37;15.90;99.90
15127;DHT22;7664;52.008;4.748;2023-08-31T06:54:06;15.80;99.90
15127;DHT22;7664;52.008;4.748;2023-08-31T06:56:34;15.70;99.90
15127;DHT22;7664;52.008;4.748;2023-08-31T06:59:03;15.70;99.90
15127;DHT22;7664;52.008;4.748;2023-08-31T07:01:31;15.80;99.90
15127;DHT22;7664;52.008;4.748;2023-08-31T07:03:59;15.90;99.90
15127;DHT22;7664;52.008;4.748;2023-08-31T07:06:28;16.00;99.90
15127;DHT22;7664;52.008;4.748;2023-08-31T07:08:57;16.10;99.90
15127;DHT22;7664;52.008;4.748;2023-08-31T07:11:25;16.20;99.90
15127;DHT22;7664;52.008;4.748;2023-08-31T07:13:54;16.30;99.90
15127;DHT22;7664;52.008;4.748;2023-08-31T07:16:24;16.30;99.90
15127;DHT22;7664;52.008;4.748;2023-08-31T07:18:52;16.50;99.90
15127;DHT22;7664;52.008;4.748;2023-08-31T07:21:20;16.50;99.90
15127;DHT22;7664;52.008;4.748;2023-08-31T07:23:49;16.50;99.90
15127;DHT22;7664;52.008;4.748;2023-08-31T07:26:18;16.60;99.90
15127;DHT22;7664;52.008;4.748;2023-08-31T07:28:46;16.90;99.90
15127;DHT22;7664;52.008;4.748;2023-08-31T07:31:14;17.30;99.90
15127;DHT22;7664;52.008;4.748;2023-08-31T07:33:43;17.80;99.90
15127;DHT22;7664;52.008;4.748;2023-08-31T07:36:11;18.40;99.90
15127;DHT22;7664;52.008;4.748;2023-08-31T07:38:39;18.80;99.90
15127;DHT22;7664;52.008;4.748;2023-08-31T07:41:07;19.30;99.90
15127;DHT22;7664;52.008;4.748;2023-08-31T07:43:37;19.50;99.90
15127;DHT22;7664;52.008;4.748;2023-08-31T07:46:20;19.80;99.90
15127;DHT22;7664;52.008;4.748;2023-08-31T07:48:48;19.90;99.90
15127;DHT22;7664;52.008;4.748;2023-08-31T07:51:19;20.00;99.90
15127;DHT22;7664;52.008;4.748;2023-08-31T07:53:50;19.90;99.90
15127;DHT22;7664;52.008;4.748;2023-08-31T07:56:18;19.70;99.90
15127;DHT22;7664;52.008;4.748;2023-08-31T07:58:47;19.50;99.90
15127;DHT22;7664;52.008;4.748;2023-08-31T08:01:15;19.20;99.90
15127;DHT22;7664;52.008;4.748;2023-08-31T08:03:44;19.10;99.90
15127;DHT22;7664;52.008;4.748;2023-08-31T08:06:12;19.00;99.90
15127;DHT22;7664;52.008;4.748;2023-08-31T08:08:40;18.70;99.90
15127;DHT22;7664;52.008;4.748;2023-08-31T08:11:08;18.60;99.90
15127;DHT22;7664;52.008;4.748;2023-08-31T08:13:36;18.50;99.90
15127;DHT22;7664;52.008;4.748;2023-08-31T08:16:06;18.40;99.90
15127;DHT22;7664;52.008;4.748;2023-08-31T08:18:35;18.40;99.90
15127;DHT22;7664;52.008;4.748;2023-08-31T08:21:03;18.30;99.90
15127;DHT22;7664;52.008;4.748;2023-08-31T08:23:31;18.30;99.90
15127;DHT22;7664;52.008;4.748;2023-08-31T08:25:59;18.30;99.90
15127;DHT22;7664;52.008;4.748;2023-08-31T08:28:27;18.20;99.90
15127;DHT22;7664;52.008;4.748;2023-08-31T08:30:56;18.30;99.90
15127;DHT22;7664;52.008;4.748;2023-08-31T08:33:25;18.30;99.90
15127;DHT22;7664;52.008;4.748;2023-08-31T08:35:56;18.30;99.90
15127;DHT22;7664;52.008;4.748;2023-08-31T08:38:25;18.30;99.90
15127;DHT22;7664;52.008;4.748;2023-08-31T08:40:53;18.30;99.90
15127;DHT22;7664;52.008;4.748;2023-08-31T08:43:24;18.30;99.90
15127;DHT22;7664;52.008;4.748;2023-08-31T08:45:54;18.30;99.90
15127;DHT22;7664;52.008;4.748;2023-08-31T08:48:23;18.30;99.90
15127;DHT22;7664;52.008;4.748;2023-08-31T08:50:53;18.40;99.90
15127;DHT22;7664;52.008;4.748;2023-08-31T08:53:23;18.40;99.90
15127;DHT22;7664;52.008;4.748;2023-08-31T08:55:51;18.50;99.90
15127;DHT22;7664;52.008;4.748;2023-08-31T08:58:19;18.50;99.90
15127;DHT22;7664;52.008;4.748;2023-08-31T09:00:47;18.50;99.90
15127;DHT22;7664;52.008;4.748;2023-08-31T09:03:16;18.60;99.90
15127;DHT22;7664;52.008;4.748;2023-08-31T09:05:44;18.60;99.90
15127;DHT22;7664;52.008;4.748;2023-08-31T09:08:13;18.60;99.90
15127;DHT22;7664;52.008;4.748;2023-08-31T09:10:43;18.60;99.90
15127;DHT22;7664;52.008;4.748;2023-08-31T09:13:13;18.60;99.90
15127;DHT22;7664;52.008;4.748;2023-08-31T09:15:44;18.60;99.90
15127;DHT22;7664;52.008;4.748;2023-08-31T09:18:16;18.50;99.90
15127;DHT22;7664;52.008;4.748;2023-08-31T09:20:46;18.50;99.90
15127;DHT22;7664;52.008;4.748;2023-08-31T09:23:17;18.50;99.90
15127;DHT22;7664;52.008;4.748;2023-08-31T09:25:46;18.50;99.90
15127;DHT22;7664;52.008;4.748;2023-08-31T09:28:19;18.60;99.90
15127;DHT22;7664;52.008;4.748;2023-08-31T09:30:48;18.60;99.90
15127;DHT22;7664;52.008;4.748;2023-08-31T09:33:18;18.70;99.90
15127;DHT22;7664;52.008;4.748;2023-08-31T09:35:51;18.80;99.90
15127;DHT22;7664;52.008;4.748;2023-08-31T09:38:20;18.90;99.90
15127;DHT22;7664;52.008;4.748;2023-08-31T09:40:49;18.90;99.90
15127;DHT22;7664;52.008;4.748;2023-08-31T09:43:21;18.90;99.90
15127;DHT22;7664;52.008;4.748;2023-08-31T09:45:50;18.90;99.90
15127;DHT22;7664;52.008;4.748;2023-08-31T09:48:20;18.90;99.90
15127;DHT22;7664;52.008;4.748;2023-08-31T09:50:51;18.90;99.90
15127;DHT22;7664;52.008;4.748;2023-08-31T09:53:21;18.90;99.90
15127;DHT22;7664;52.008;4.748;2023-08-31T09:55:56;18.90;99.90
15127;DHT22;7664;52.008;4.748;2023-08-31T09:58:25;18.90;99.90
15127;DHT22;7664;52.008;4.748;2023-08-31T10:00:53;18.90;99.90
15127;DHT22;7664;52.008;4.748;2023-08-31T10:03:21;18.90;99.90
15127;DHT22;7664;52.008;4.748;2023-08-31T10:05:50;18.90;99.90
15127;DHT22;7664;52.008;4.748;2023-08-31T10:08:18;19.00;99.90
15127;DHT22;7664;52.008;4.748;2023-08-31T10:10:48;19.10;99.90
15127;DHT22;7664;52.008;4.748;2023-08-31T10:13:16;19.10;99.90
15127;DHT22;7664;52.008;4.748;2023-08-31T10:15:47;19.20;99.90
15127;DHT22;7664;52.008;4.748;2023-08-31T10:18:16;19.20;99.90
15127;DHT22;7664;52.008;4.748;2023-08-31T10:20:45;19.20;99.90
15127;DHT22;7664;52.008;4.748;2023-08-31T10:23:13;19.30;99.90
15127;DHT22;7664;52.008;4.748;2023-08-31T10:26:02;19.30;99.90
15127;DHT22;7664;52.008;4.748;2023-08-31T10:28:39;19.40;99.90
15127;DHT22;7664;52.008;4.748;2023-08-31T10:31:09;19.40;99.90
15127;DHT22;7664;52.008;4.748;2023-08-31T10:33:41;19.40;99.90
15127;DHT22;7664;52.008;4.748;2023-08-31T10:36:11;19.30;99.60
15127;DHT22;7664;52.008;4.748;2023-08-31T10:38:41;19.30;99.90
15127;DHT22;7664;52.008;4.748;2023-08-31T10:41:21;19.40;99.50
15127;DHT22;7664;52.008;4.748;2023-08-31T10:43:51;19.40;97.70
15127;DHT22;7664;52.008;4.748;2023-08-31T10:46:27;19.40;97.70
15127;DHT22;7664;52.008;4.748;2023-08-31T10:48:57;19.40;98.80
15127;DHT22;7664;52.008;4.748;2023-08-31T10:51:26;19.40;99.30
15127;DHT22;7664;52.008;4.748;2023-08-31T10:54:07;19.40;99.10
15127;DHT22;7664;52.008;4.748;2023-08-31T10:57:01;19.40;96.10
15127;DHT22;7664;52.008;4.748;2023-08-31T10:59:45;19.60;95.40
15127;DHT22;7664;52.008;4.748;2023-08-31T11:02:30;19.60;93.50
15127;DHT22;7664;52.008;4.748;2023-08-31T11:05:06;19.50;92.80
15127;DHT22;7664;52.008;4.748;2023-08-31T11:07:35;19.40;92.20
15127;DHT22;7664;52.008;4.748;2023-08-31T11:10:15;19.40;94.40
15127;DHT22;7664;52.008;4.748;2023-08-31T11:12:46;19.40;94.50
15127;DHT22;7664;52.008;4.748;2023-08-31T11:15:17;19.40;93.40
15127;DHT22;7664;52.008;4.748;2023-08-31T11:17:45;19.50;94.70
15127;DHT22;7664;52.008;4.748;2023-08-31T11:20:15;19.50;93.90
15127;DHT22;7664;52.008;4.748;2023-08-31T11:22:46;19.60;92.90
15127;DHT22;7664;52.008;4.748;2023-08-31T11:25:17;19.70;92.60
15127;DHT22;7664;52.008;4.748;2023-08-31T11:27:54;19.70;91.40
15127;DHT22;7664;52.008;4.748;2023-08-31T11:30:22;19.70;90.80
15127;DHT22;7664;52.008;4.748;2023-08-31T11:32:52;19.70;91.80
15127;DHT22;7664;52.008;4.748;2023-08-31T11:35:22;19.70;91.00
15127;DHT22;7664;52.008;4.748;2023-08-31T11:37:52;19.70;91.20
15127;DHT22;7664;52.008;4.748;2023-08-31T11:40:20;19.70;91.00
15127;DHT22;7664;52.008;4.748;2023-08-31T11:42:48;19.70;90.70
15127;DHT22;7664;52.008;4.748;2023-08-31T11:45:18;19.70;91.20
15127;DHT22;7664;52.008;4.748;2023-08-31T11:47:48;19.70;90.90
15127;DHT22;7664;52.008;4.748;2023-08-31T11:50:17;19.70;92.20
15127;DHT22;7664;52.008;4.748;2023-08-31T11:52:46;19.70;92.30
15127;DHT22;7664;52.008;4.748;2023-08-31T11:55:15;19.70;89.60
15127;DHT22;7664;52.008;4.748;2023-08-31T11:57:48;19.80;91.20
15127;DHT22;7664;52.008;4.748;2023-08-31T12:00:20;19.80;89.50
15127;DHT22;7664;52.008;4.748;2023-08-31T12:02:56;19.90;89.50
15127;DHT22;7664;52.008;4.748;2023-08-31T12:05:24;19.90;89.00
15127;DHT22;7664;52.008;4.748;2023-08-31T12:07:53;19.90;90.40
15127;DHT22;7664;52.008;4.748;2023-08-31T12:10:24;20.00;90.00
15127;DHT22;7664;52.008;4.748;2023-08-31T12:12:52;20.00;89.60
15127;DHT22;7664;52.008;4.748;2023-08-31T12:15:35;20.00;86.60
15127;DHT22;7664;52.008;4.748;2023-08-31T12:18:07;20.00;87.80
15127;DHT22;7664;52.008;4.748;2023-08-31T12:20:43;20.00;87.20
15127;DHT22;7664;52.008;4.748;2023-08-31T12:23:11;19.90;88.60
15127;DHT22;7664;52.008;4.748;2023-08-31T12:25:46;19.90;87.50
15127;DHT22;7664;52.008;4.748;2023-08-31T12:28:14;19.80;89.50
15127;DHT22;7664;52.008;4.748;2023-08-31T12:30:49;19.80;88.70
15127;DHT22;7664;52.008;4.748;2023-08-31T12:33:17;19.70;90.20
15127;DHT22;7664;52.008;4.748;2023-08-31T12:35:46;19.70;87.90
15127;DHT22;7664;52.008;4.748;2023-08-31T12:38:15;19.70;87.90
15127;DHT22;7664;52.008;4.748;2023-08-31T12:40:43;19.60;87.20
15127;DHT22;7664;52.008;4.748;2023-08-31T12:43:11;19.70;86.60
15127;DHT22;7664;52.008;4.748;2023-08-31T12:45:39;19.70;88.00
15127;DHT22;7664;52.008;4.748;2023-08-31T12:48:09;19.70;88.90
15127;DHT22;7664;52.008;4.748;2023-08-31T12:50:38;19.80;89.30
15127;DHT22;7664;52.008;4.748;2023-08-31T12:53:06;19.80;89.40
15127;DHT22;7664;52.008;4.748;2023-08-31T12:55:34;19.90;90.00
15127;DHT22;7664;52.008;4.748;2023-08-31T12:58:02;20.00;86.00
15127;DHT22;7664;52.008;4.748;2023-08-31T13:00:30;20.10;87.40
15127;DHT22;7664;52.008;4.748;2023-08-31T13:02:58;20.20;86.30
15127;DHT22;7664;52.008;4.748;2023-08-31T13:05:28;20.20;85.60
15127;DHT22;7664;52.008;4.748;2023-08-31T13:07:56;20.10;85.30
15127;DHT22;7664;52.008;4.748;2023-08-31T13:10:24;20.10;85.30
15127;DHT22;7664;52.008;4.748;2023-08-31T13:12:52;20.10;86.10
15127;DHT22;7664;52.008;4.748;2023-08-31T13:15:21;20.10;85.20
15127;DHT22;7664;52.008;4.748;2023-08-31T13:17:49;20.10;86.40
15127;DHT22;7664;52.008;4.748;2023-08-31T13:20:17;20.10;85.40
15127;DHT22;7664;52.008;4.748;2023-08-31T13:22:46;20.10;85.40
15127;DHT22;7664;52.008;4.748;2023-08-31T13:25:14;20.10;85.30
15127;DHT22;7664;52.008;4.748;2023-08-31T13:27:42;20.10;86.00
15127;DHT22;7664;52.008;4.748;2023-08-31T13:30:11;20.20;86.50
15127;DHT22;7664;52.008;4.748;2023-08-31T13:32:40;20.30;88.20
15127;DHT22;7664;52.008;4.748;2023-08-31T13:35:09;20.40;89.70
15127;DHT22;7664;52.008;4.748;2023-08-31T13:37:37;20.40;90.00
15127;DHT22;7664;52.008;4.748;2023-08-31T13:40:08;20.50;89.60
15127;DHT22;7664;52.008;4.748;2023-08-31T13:42:36;20.60;88.70
15127;DHT22;7664;52.008;4.748;2023-08-31T13:45:07;20.60;86.20
15127;DHT22;7664;52.008;4.748;2023-08-31T13:47:35;20.60;86.80
15127;DHT22;7664;52.008;4.748;2023-08-31T13:50:05;20.50;87.00
15127;DHT22;7664;52.008;4.748;2023-08-31T13:52:33;20.50;87.10
15127;DHT22;7664;52.008;4.748;2023-08-31T13:55:01;20.50;87.30
15127;DHT22;7664;52.008;4.748;2023-08-31T13:57:31;20.50;88.00
15127;DHT22;7664;52.008;4.748;2023-08-31T13:59:59;20.50;86.90
15127;DHT22;7664;52.008;4.748;2023-08-31T14:02:27;20.50;87.40
15127;DHT22;7664;52.008;4.748;2023-08-31T14:04:56;20.50;86.10
15127;DHT22;7664;52.008;4.748;2023-08-31T14:07:24;20.50;87.50
15127;DHT22;7664;52.008;4.748;2023-08-31T14:09:52;20.50;86.30
15127;DHT22;7664;52.008;4.748;2023-08-31T14:12:20;20.40;85.00
15127;DHT22;7664;52.008;4.748;2023-08-31T14:14:49;20.50;87.00
15127;DHT22;7664;52.008;4.748;2023-08-31T14:17:17;20.50;84.80
15127;DHT22;7664;52.008;4.748;2023-08-31T14:19:45;20.50;85.80
15127;DHT22;7664;52.008;4.748;2023-08-31T14:22:13;20.50;86.00
15127;DHT22;7664;52.008;4.748;2023-08-31T14:24:42;20.50;87.00
15127;DHT22;7664;52.008;4.748;2023-08-31T14:27:12;20.60;86.40
15127;DHT22;7664;52.008;4.748;2023-08-31T14:29:40;20.50;86.50
15127;DHT22;7664;52.008;4.748;2023-08-31T14:32:10;20.50;86.90
15127;DHT22;7664;52.008;4.748;2023-08-31T14:34:38;20.50;86.50
15127;DHT22;7664;52.008;4.748;2023-08-31T14:37:07;20.60;86.50
15127;DHT22;7664;52.008;4.748;2023-08-31T14:39:35;20.50;85.80
15127;DHT22;7664;52.008;4.748;2023-08-31T14:42:04;20.60;85.90
15127;DHT22;7664;52.008;4.748;2023-08-31T14:44:32;20.60;86.90
15127;DHT22;7664;52.008;4.748;2023-08-31T14:47:00;20.60;87.00
15127;DHT22;7664;52.008;4.748;2023-08-31T14:49:29;20.50;85.80
15127;DHT22;7664;52.008;4.748;2023-08-31T14:51:57;20.60;83.60
15127;DHT22;7664;52.008;4.748;2023-08-31T14:54:31;20.50;84.60
15127;DHT22;7664;52.008;4.748;2023-08-31T14:56:59;20.50;83.60
15127;DHT22;7664;52.008;4.748;2023-08-31T14:59:30;20.50;84.50
15127;DHT22;7664;52.008;4.748;2023-08-31T15:01:58;20.50;84.30
15127;DHT22;7664;52.008;4.748;2023-08-31T15:04:30;20.50;84.80
15127;DHT22;7664;52.008;4.748;2023-08-31T15:06:58;20.50;85.50
15127;DHT22;7664;52.008;4.748;2023-08-31T15:09:26;20.50;86.00
15127;DHT22;7664;52.008;4.748;2023-08-31T15:11:54;20.50;86.10
15127;DHT22;7664;52.008;4.748;2023-08-31T15:14:22;20.50;86.80
15127;DHT22;7664;52.008;4.748;2023-08-31T15:16:51;20.50;87.60
15127;DHT22;7664;52.008;4.748;2023-08-31T15:19:19;20.60;88.30
15127;DHT22;7664;52.008;4.748;2023-08-31T15:21:49;20.60;87.60
15127;DHT22;7664;52.008;4.748;2023-08-31T15:24:17;20.60;86.20
15127;DHT22;7664;52.008;4.748;2023-08-31T15:26:45;20.60;86.90
15127;DHT22;7664;52.008;4.748;2023-08-31T15:29:13;20.60;86.30
15127;DHT22;7664;52.008;4.748;2023-08-31T15:31:41;20.60;86.70
15127;DHT22;7664;52.008;4.748;2023-08-31T15:34:10;20.70;85.00
15127;DHT22;7664;52.008;4.748;2023-08-31T15:36:38;20.70;85.30
15127;DHT22;7664;52.008;4.748;2023-08-31T15:39:09;20.70;86.00
15127;DHT22;7664;52.008;4.748;2023-08-31T15:41:39;20.70;86.10
15127;DHT22;7664;52.008;4.748;2023-08-31T15:44:07;20.70;88.20
15127;DHT22;7664;52.008;4.748;2023-08-31T15:46:42;20.70;85.90
15127;DHT22;7664;52.008;4.748;2023-08-31T15:49:11;20.70;86.00
15127;DHT22;7664;52.008;4.748;2023-08-31T15:51:42;20.60;84.70
15127;DHT22;7664;52.008;4.748;2023-08-31T15:54:12;20.50;86.40
15127;DHT22;7664;52.008;4.748;2023-08-31T15:56:40;20.50;87.40
15127;DHT22;7664;52.008;4.748;2023-08-31T15:59:08;20.40;86.90